メインページ
METAR-TAF:

METAR-TAF

空港 :

ゴールドコースト空港

クーランガッタ, オーストラリア

緯度: 28-10S, 経度: 153-30E, 海抜: 6m

現時点の気象観測

当レポートは19分前の06:00(UTC)に作成
南東の風 16kt
気温 20°C
湿度 56%
気圧 1024 hPa
視程10km以上

METAR: YBCG 210600Z AUTO 14016KT 9999 // NCD 20/11 Q1024

時間: 16:19 (06:19 UTC)

予報

当レポートは13分前の06:06(UTC)に作成
予報は21日の 06時(UTC)から 22日の 06時(UTC)まで有効
南/南東の風 14kt
視程10km以上
高度4000ftの雲はほとんどない
21日の 0900時(UTC)から
の風 8kt
視程10km以上
高度2000ftの雲はほとんどない
21日の 2300時(UTC)から
の風 13kt
視程10km以上
高度3500ftの雲はほとんどない

TAF: YBCG 210606Z 2106/2206 15014KT 9999 FEW040 FM210900 17008KT 9999 FEW020 FM212300 17013KT 9999 FEW035

4,000以上の空港の気象観測と天気予報(METAR報とTAF報)

利用可能な観測所は地図上に黄色い丸と赤い丸で示す。

丸の上にカーソルを重ねると観測所名を参照できる。

次にクリックすると気象観測と天気予報を参照できる。

マップの切り替え:黒色「×」印の緑ボタンをクリックして拡大、「-」印の緑ボタンをクリックして縮小、緑色の三角印をクリックして隣りの地図に切り替え


METAR-TAF: